sensor_id;sensor_type;location;lat;lon;timestamp;P1;durP1;ratioP1;P2;durP2;ratioP2
16314;SDS011;8266;52.150;4.768;2023-06-22T00:01:15;9.25;;;7.72;;
16314;SDS011;8266;52.150;4.768;2023-06-22T00:03:42;9.25;;;8.45;;
16314;SDS011;8266;52.150;4.768;2023-06-22T00:06:09;8.70;;;7.90;;
16314;SDS011;8266;52.150;4.768;2023-06-22T00:08:36;9.23;;;8.32;;
16314;SDS011;8266;52.150;4.768;2023-06-22T00:11:03;8.98;;;8.15;;
16314;SDS011;8266;52.150;4.768;2023-06-22T00:13:32;8.18;;;7.53;;
16314;SDS011;8266;52.150;4.768;2023-06-22T00:15:59;9.20;;;7.68;;
16314;SDS011;8266;52.150;4.768;2023-06-22T00:18:26;9.85;;;8.68;;
16314;SDS011;8266;52.150;4.768;2023-06-22T00:20:53;8.85;;;7.97;;
16314;SDS011;8266;52.150;4.768;2023-06-22T00:23:23;8.55;;;7.72;;
16314;SDS011;8266;52.150;4.768;2023-06-22T00:25:51;9.25;;;8.35;;
16314;SDS011;8266;52.150;4.768;2023-06-22T00:28:18;8.90;;;8.10;;
16314;SDS011;8266;52.150;4.768;2023-06-22T00:30:48;8.85;;;8.05;;
16314;SDS011;8266;52.150;4.768;2023-06-22T00:33:15;9.90;;;8.23;;
16314;SDS011;8266;52.150;4.768;2023-06-22T00:35:42;9.02;;;8.18;;
16314;SDS011;8266;52.150;4.768;2023-06-22T00:38:09;8.68;;;7.68;;
16314;SDS011;8266;52.150;4.768;2023-06-22T00:40:37;9.13;;;8.23;;
16314;SDS011;8266;52.150;4.768;2023-06-22T00:43:04;8.02;;;7.28;;
16314;SDS011;8266;52.150;4.768;2023-06-22T00:45:32;7.10;;;6.47;;
16314;SDS011;8266;52.150;4.768;2023-06-22T00:48:00;6.47;;;5.97;;
16314;SDS011;8266;52.150;4.768;2023-06-22T00:50:29;5.13;;;4.72;;
16314;SDS011;8266;52.150;4.768;2023-06-22T00:52:58;3.50;;;2.92;;
16314;SDS011;8266;52.150;4.768;2023-06-22T00:55:27;2.58;;;2.40;;
16314;SDS011;8266;52.150;4.768;2023-06-22T00:57:55;3.00;;;2.80;;
16314;SDS011;8266;52.150;4.768;2023-06-22T01:00:23;3.35;;;3.03;;
16314;SDS011;8266;52.150;4.768;2023-06-22T01:02:51;2.85;;;2.65;;
16314;SDS011;8266;52.150;4.768;2023-06-22T01:05:20;3.40;;;3.10;;
16314;SDS011;8266;52.150;4.768;2023-06-22T01:07:52;4.32;;;3.92;;
16314;SDS011;8266;52.150;4.768;2023-06-22T01:10:32;4.60;;;4.20;;
16314;SDS011;8266;52.150;4.768;2023-06-22T01:13:06;4.95;;;4.55;;
16314;SDS011;8266;52.150;4.768;2023-06-22T01:15:41;5.07;;;4.68;;
16314;SDS011;8266;52.150;4.768;2023-06-22T01:18:14;5.00;;;4.53;;
16314;SDS011;8266;52.150;4.768;2023-06-22T01:20:46;5.43;;;4.93;;
16314;SDS011;8266;52.150;4.768;2023-06-22T01:23:17;6.15;;;5.00;;
16314;SDS011;8266;52.150;4.768;2023-06-22T01:25:53;6.18;;;5.57;;
16314;SDS011;8266;52.150;4.768;2023-06-22T01:28:45;6.72;;;6.13;;
16314;SDS011;8266;52.150;4.768;2023-06-22T01:31:13;6.13;;;5.53;;
16314;SDS011;8266;52.150;4.768;2023-06-22T01:33:43;5.45;;;4.95;;
16314;SDS011;8266;52.150;4.768;2023-06-22T01:36:12;5.85;;;5.35;;
16314;SDS011;8266;52.150;4.768;2023-06-22T01:38:40;5.05;;;4.65;;
16314;SDS011;8266;52.150;4.768;2023-06-22T01:41:09;6.53;;;4.70;;
16314;SDS011;8266;52.150;4.768;2023-06-22T01:43:37;6.68;;;6.03;;
16314;SDS011;8266;52.150;4.768;2023-06-22T01:46:06;6.53;;;5.93;;
16314;SDS011;8266;52.150;4.768;2023-06-22T01:48:34;8.48;;;6.20;;
16314;SDS011;8266;52.150;4.768;2023-06-22T01:51:01;7.20;;;6.50;;
16314;SDS011;8266;52.150;4.768;2023-06-22T01:53:28;7.43;;;6.72;;
16314;SDS011;8266;52.150;4.768;2023-06-22T01:55:55;7.93;;;7.13;;
16314;SDS011;8266;52.150;4.768;2023-06-22T01:58:23;8.43;;;7.53;;
16314;SDS011;8266;52.150;4.768;2023-06-22T02:00:53;8.88;;;7.97;;
16314;SDS011;8266;52.150;4.768;2023-06-22T02:03:27;9.57;;;8.68;;
16314;SDS011;8266;52.150;4.768;2023-06-22T02:05:58;9.77;;;8.88;;
16314;SDS011;8266;52.150;4.768;2023-06-22T02:08:30;10.30;;;9.30;;
16314;SDS011;8266;52.150;4.768;2023-06-22T02:11:02;10.98;;;9.55;;
16314;SDS011;8266;52.150;4.768;2023-06-22T02:13:31;10.27;;;9.18;;
16314;SDS011;8266;52.150;4.768;2023-06-22T02:15:59;10.65;;;9.63;;
16314;SDS011;8266;52.150;4.768;2023-06-22T02:18:28;12.50;;;10.55;;
16314;SDS011;8266;52.150;4.768;2023-06-22T02:20:55;13.02;;;11.05;;
16314;SDS011;8266;52.150;4.768;2023-06-22T02:23:22;13.57;;;10.73;;
16314;SDS011;8266;52.150;4.768;2023-06-22T02:25:49;12.32;;;11.10;;
16314;SDS011;8266;52.150;4.768;2023-06-22T02:28:16;11.25;;;9.70;;
16314;SDS011;8266;52.150;4.768;2023-06-22T02:30:43;12.98;;;11.60;;
16314;SDS011;8266;52.150;4.768;2023-06-22T02:33:10;13.25;;;11.73;;
16314;SDS011;8266;52.150;4.768;2023-06-22T02:35:39;12.90;;;11.23;;
16314;SDS011;8266;52.150;4.768;2023-06-22T02:38:10;13.85;;;11.93;;
16314;SDS011;8266;52.150;4.768;2023-06-22T02:40:37;12.57;;;11.25;;
16314;SDS011;8266;52.150;4.768;2023-06-22T02:43:04;11.70;;;10.27;;
16314;SDS011;8266;52.150;4.768;2023-06-22T02:45:31;13.02;;;11.63;;
16314;SDS011;8266;52.150;4.768;2023-06-22T02:47:58;12.27;;;11.07;;
16314;SDS011;8266;52.150;4.768;2023-06-22T02:50:25;12.50;;;11.27;;
16314;SDS011;8266;52.150;4.768;2023-06-22T02:52:54;10.80;;;9.80;;
16314;SDS011;8266;52.150;4.768;2023-06-22T02:55:21;12.55;;;11.30;;
16314;SDS011;8266;52.150;4.768;2023-06-22T02:57:48;11.98;;;10.70;;
16314;SDS011;8266;52.150;4.768;2023-06-22T03:00:18;11.98;;;10.07;;
16314;SDS011;8266;52.150;4.768;2023-06-22T03:02:47;12.45;;;11.30;;
16314;SDS011;8266;52.150;4.768;2023-06-22T03:05:15;12.65;;;11.35;;
16314;SDS011;8266;52.150;4.768;2023-06-22T03:07:43;12.18;;;10.93;;
16314;SDS011;8266;52.150;4.768;2023-06-22T03:10:12;11.65;;;10.45;;
16314;SDS011;8266;52.150;4.768;2023-06-22T03:12:40;12.30;;;11.02;;
16314;SDS011;8266;52.150;4.768;2023-06-22T03:15:08;11.60;;;10.40;;
16314;SDS011;8266;52.150;4.768;2023-06-22T03:17:36;13.52;;;12.15;;
16314;SDS011;8266;52.150;4.768;2023-06-22T03:20:05;15.68;;;11.40;;
16314;SDS011;8266;52.150;4.768;2023-06-22T03:22:34;13.30;;;11.73;;
16314;SDS011;8266;52.150;4.768;2023-06-22T03:25:01;12.70;;;11.48;;
16314;SDS011;8266;52.150;4.768;2023-06-22T03:27:30;13.25;;;10.57;;
16314;SDS011;8266;52.150;4.768;2023-06-22T03:29:57;10.93;;;9.85;;
16314;SDS011;8266;52.150;4.768;2023-06-22T03:32:25;12.35;;;11.02;;
16314;SDS011;8266;52.150;4.768;2023-06-22T03:34:53;12.38;;;11.15;;
16314;SDS011;8266;52.150;4.768;2023-06-22T03:37:23;12.95;;;11.55;;
16314;SDS011;8266;52.150;4.768;2023-06-22T03:39:50;13.20;;;11.75;;
16314;SDS011;8266;52.150;4.768;2023-06-22T03:42:17;13.68;;;11.52;;
16314;SDS011;8266;52.150;4.768;2023-06-22T03:44:46;13.13;;;11.77;;
16314;SDS011;8266;52.150;4.768;2023-06-22T03:47:13;14.05;;;12.63;;
16314;SDS011;8266;52.150;4.768;2023-06-22T03:49:40;13.25;;;11.45;;
16314;SDS011;8266;52.150;4.768;2023-06-22T03:52:07;13.05;;;11.55;;
16314;SDS011;8266;52.150;4.768;2023-06-22T03:54:36;13.45;;;12.05;;
16314;SDS011;8266;52.150;4.768;2023-06-22T03:57:03;12.80;;;11.50;;
16314;SDS011;8266;52.150;4.768;2023-06-22T03:59:30;7.47;;;6.78;;
16314;SDS011;8266;52.150;4.768;2023-06-22T04:01:59;7.20;;;6.50;;
16314;SDS011;8266;52.150;4.768;2023-06-22T04:04:26;9.48;;;8.00;;
16314;SDS011;8266;52.150;4.768;2023-06-22T04:06:53;11.65;;;10.45;;
16314;SDS011;8266;52.150;4.768;2023-06-22T04:09:20;13.18;;;11.15;;
16314;SDS011;8266;52.150;4.768;2023-06-22T04:11:47;11.32;;;10.13;;
16314;SDS011;8266;52.150;4.768;2023-06-22T04:14:14;9.77;;;8.77;;
16314;SDS011;8266;52.150;4.768;2023-06-22T04:16:42;10.05;;;9.05;;
16314;SDS011;8266;52.150;4.768;2023-06-22T04:19:10;9.63;;;8.55;;
16314;SDS011;8266;52.150;4.768;2023-06-22T04:21:41;10.63;;;9.52;;
16314;SDS011;8266;52.150;4.768;2023-06-22T04:24:08;12.23;;;10.93;;
16314;SDS011;8266;52.150;4.768;2023-06-22T04:26:35;12.48;;;11.23;;
16314;SDS011;8266;52.150;4.768;2023-06-22T04:29:03;13.32;;;11.48;;
16314;SDS011;8266;52.150;4.768;2023-06-22T04:31:31;13.07;;;11.68;;
16314;SDS011;8266;52.150;4.768;2023-06-22T04:34:02;12.55;;;11.30;;
16314;SDS011;8266;52.150;4.768;2023-06-22T04:36:34;13.02;;;11.68;;
16314;SDS011;8266;52.150;4.768;2023-06-22T04:39:03;14.98;;;11.48;;
16314;SDS011;8266;52.150;4.768;2023-06-22T04:41:32;12.80;;;11.48;;
16314;SDS011;8266;52.150;4.768;2023-06-22T04:44:07;12.63;;;11.30;;
16314;SDS011;8266;52.150;4.768;2023-06-22T04:46:35;12.98;;;11.32;;
16314;SDS011;8266;52.150;4.768;2023-06-22T04:49:04;13.32;;;11.93;;
16314;SDS011;8266;52.150;4.768;2023-06-22T04:51:36;14.15;;;12.70;;
16314;SDS011;8266;52.150;4.768;2023-06-22T04:54:07;13.57;;;12.20;;
16314;SDS011;8266;52.150;4.768;2023-06-22T04:56:34;12.85;;;11.35;;
16314;SDS011;8266;52.150;4.768;2023-06-22T04:59:02;12.88;;;11.48;;
16314;SDS011;8266;52.150;4.768;2023-06-22T05:01:29;14.05;;;12.65;;
16314;SDS011;8266;52.150;4.768;2023-06-22T05:03:57;13.57;;;12.27;;
16314;SDS011;8266;52.150;4.768;2023-06-22T05:06:26;13.00;;;11.70;;
16314;SDS011;8266;52.150;4.768;2023-06-22T05:08:54;14.00;;;12.50;;
16314;SDS011;8266;52.150;4.768;2023-06-22T05:11:23;13.10;;;11.70;;
16314;SDS011;8266;52.150;4.768;2023-06-22T05:13:51;12.05;;;10.40;;
16314;SDS011;8266;52.150;4.768;2023-06-22T05:16:18;13.13;;;11.73;;
16314;SDS011;8266;52.150;4.768;2023-06-22T05:18:48;12.63;;;11.43;;
16314;SDS011;8266;52.150;4.768;2023-06-22T05:21:16;12.90;;;11.60;;
16314;SDS011;8266;52.150;4.768;2023-06-22T05:23:44;12.30;;;10.80;;
16314;SDS011;8266;52.150;4.768;2023-06-22T05:26:12;12.82;;;11.48;;
16314;SDS011;8266;52.150;4.768;2023-06-22T05:28:39;12.82;;;11.20;;
16314;SDS011;8266;52.150;4.768;2023-06-22T05:31:06;12.60;;;11.00;;
16314;SDS011;8266;52.150;4.768;2023-06-22T05:33:33;12.20;;;11.02;;
16314;SDS011;8266;52.150;4.768;2023-06-22T05:36:00;11.68;;;10.48;;
16314;SDS011;8266;52.150;4.768;2023-06-22T05:38:27;12.88;;;10.55;;
16314;SDS011;8266;52.150;4.768;2023-06-22T05:40:54;13.65;;;12.25;;
16314;SDS011;8266;52.150;4.768;2023-06-22T05:43:22;12.40;;;10.50;;
16314;SDS011;8266;52.150;4.768;2023-06-22T05:45:49;10.73;;;9.63;;
16314;SDS011;8266;52.150;4.768;2023-06-22T05:48:17;12.43;;;10.38;;
16314;SDS011;8266;52.150;4.768;2023-06-22T05:50:43;13.43;;;9.60;;
16314;SDS011;8266;52.150;4.768;2023-06-22T05:53:11;11.27;;;10.07;;
16314;SDS011;8266;52.150;4.768;2023-06-22T05:55:38;12.30;;;8.98;;
16314;SDS011;8266;52.150;4.768;2023-06-22T05:58:04;11.18;;;9.25;;
16314;SDS011;8266;52.150;4.768;2023-06-22T06:00:33;11.48;;;10.05;;
16314;SDS011;8266;52.150;4.768;2023-06-22T06:03:00;10.48;;;9.48;;
16314;SDS011;8266;52.150;4.768;2023-06-22T06:05:28;11.25;;;10.15;;
16314;SDS011;8266;52.150;4.768;2023-06-22T06:07:55;10.20;;;9.25;;
16314;SDS011;8266;52.150;4.768;2023-06-22T06:10:22;10.25;;;8.90;;
16314;SDS011;8266;52.150;4.768;2023-06-22T06:12:50;10.32;;;9.30;;
16314;SDS011;8266;52.150;4.768;2023-06-22T06:15:17;10.75;;;9.65;;
16314;SDS011;8266;52.150;4.768;2023-06-22T06:17:49;10.35;;;9.35;;
16314;SDS011;8266;52.150;4.768;2023-06-22T06:20:17;9.90;;;8.90;;
16314;SDS011;8266;52.150;4.768;2023-06-22T06:22:45;10.75;;;9.38;;
16314;SDS011;8266;52.150;4.768;2023-06-22T06:25:12;9.48;;;8.45;;
16314;SDS011;8266;52.150;4.768;2023-06-22T06:27:45;10.60;;;9.50;;
16314;SDS011;8266;52.150;4.768;2023-06-22T06:30:13;10.02;;;9.02;;
16314;SDS011;8266;52.150;4.768;2023-06-22T06:32:41;9.45;;;8.55;;
16314;SDS011;8266;52.150;4.768;2023-06-22T06:35:12;8.75;;;7.85;;
16314;SDS011;8266;52.150;4.768;2023-06-22T06:37:40;9.60;;;8.63;;
16314;SDS011;8266;52.150;4.768;2023-06-22T06:40:09;9.45;;;8.65;;
16314;SDS011;8266;52.150;4.768;2023-06-22T06:42:37;9.18;;;8.27;;
16314;SDS011;8266;52.150;4.768;2023-06-22T06:45:07;9.27;;;8.38;;
16314;SDS011;8266;52.150;4.768;2023-06-22T06:47:34;8.88;;;7.97;;
16314;SDS011;8266;52.150;4.768;2023-06-22T06:50:01;9.50;;;7.72;;
16314;SDS011;8266;52.150;4.768;2023-06-22T06:52:31;9.63;;;7.63;;
16314;SDS011;8266;52.150;4.768;2023-06-22T06:54:58;9.00;;;8.10;;
16314;SDS011;8266;52.150;4.768;2023-06-22T06:57:25;8.85;;;8.00;;
16314;SDS011;8266;52.150;4.768;2023-06-22T06:59:53;8.85;;;7.75;;
16314;SDS011;8266;52.150;4.768;2023-06-22T07:02:21;9.23;;;8.30;;
16314;SDS011;8266;52.150;4.768;2023-06-22T07:04:48;8.48;;;7.68;;
16314;SDS011;8266;52.150;4.768;2023-06-22T07:07:16;9.02;;;8.13;;
16314;SDS011;8266;52.150;4.768;2023-06-22T07:09:44;7.85;;;7.07;;
16314;SDS011;8266;52.150;4.768;2023-06-22T07:12:11;8.75;;;7.75;;
16314;SDS011;8266;52.150;4.768;2023-06-22T07:14:38;8.05;;;7.15;;
16314;SDS011;8266;52.150;4.768;2023-06-22T07:17:05;8.13;;;6.50;;
16314;SDS011;8266;52.150;4.768;2023-06-22T07:19:32;7.75;;;7.05;;
16314;SDS011;8266;52.150;4.768;2023-06-22T07:21:59;7.90;;;6.00;;
16314;SDS011;8266;52.150;4.768;2023-06-22T07:24:27;7.70;;;6.90;;
16314;SDS011;8266;52.150;4.768;2023-06-22T07:26:55;7.13;;;5.93;;
16314;SDS011;8266;52.150;4.768;2023-06-22T07:29:22;6.35;;;5.75;;
16314;SDS011;8266;52.150;4.768;2023-06-22T07:31:49;7.47;;;6.28;;
16314;SDS011;8266;52.150;4.768;2023-06-22T07:34:17;6.70;;;6.00;;
16314;SDS011;8266;52.150;4.768;2023-06-22T07:36:44;7.50;;;6.30;;
16314;SDS011;8266;52.150;4.768;2023-06-22T07:39:12;6.15;;;5.63;;
16314;SDS011;8266;52.150;4.768;2023-06-22T07:41:39;6.93;;;6.32;;
16314;SDS011;8266;52.150;4.768;2023-06-22T07:44:08;7.47;;;6.80;;
16314;SDS011;8266;52.150;4.768;2023-06-22T07:46:35;8.13;;;7.20;;
16314;SDS011;8266;52.150;4.768;2023-06-22T07:49:02;8.27;;;7.47;;
16314;SDS011;8266;52.150;4.768;2023-06-22T07:51:29;6.85;;;6.25;;
16314;SDS011;8266;52.150;4.768;2023-06-22T07:53:56;9.40;;;7.65;;
16314;SDS011;8266;52.150;4.768;2023-06-22T07:56:23;9.30;;;8.32;;
16314;SDS011;8266;52.150;4.768;2023-06-22T07:58:50;8.30;;;7.30;;
16314;SDS011;8266;52.150;4.768;2023-06-22T08:01:19;9.05;;;8.15;;
16314;SDS011;8266;52.150;4.768;2023-06-22T08:03:47;8.15;;;7.35;;
16314;SDS011;8266;52.150;4.768;2023-06-22T08:06:14;9.38;;;8.48;;
16314;SDS011;8266;52.150;4.768;2023-06-22T08:08:41;11.05;;;10.05;;
16314;SDS011;8266;52.150;4.768;2023-06-22T08:11:09;11.68;;;8.68;;
16314;SDS011;8266;52.150;4.768;2023-06-22T08:13:35;9.48;;;8.48;;
16314;SDS011;8266;52.150;4.768;2023-06-22T08:16:03;10.52;;;9.25;;
16314;SDS011;8266;52.150;4.768;2023-06-22T08:18:31;8.23;;;7.38;;
16314;SDS011;8266;52.150;4.768;2023-06-22T08:20:58;9.27;;;7.53;;
16314;SDS011;8266;52.150;4.768;2023-06-22T08:23:25;9.45;;;8.48;;
16314;SDS011;8266;52.150;4.768;2023-06-22T08:25:52;9.32;;;8.38;;
16314;SDS011;8266;52.150;4.768;2023-06-22T08:28:19;10.43;;;9.07;;
16314;SDS011;8266;52.150;4.768;2023-06-22T08:30:46;7.97;;;7.18;;
16314;SDS011;8266;52.150;4.768;2023-06-22T08:33:13;9.73;;;8.73;;
16314;SDS011;8266;52.150;4.768;2023-06-22T08:35:41;8.18;;;7.38;;
16314;SDS011;8266;52.150;4.768;2023-06-22T08:38:08;11.15;;;9.02;;
16314;SDS011;8266;52.150;4.768;2023-06-22T08:40:35;8.55;;;7.75;;
16314;SDS011;8266;52.150;4.768;2023-06-22T08:43:02;8.13;;;7.43;;
16314;SDS011;8266;52.150;4.768;2023-06-22T08:45:30;9.93;;;7.95;;
16314;SDS011;8266;52.150;4.768;2023-06-22T08:47:57;7.80;;;7.00;;
16314;SDS011;8266;52.150;4.768;2023-06-22T08:50:24;9.55;;;8.02;;
16314;SDS011;8266;52.150;4.768;2023-06-22T08:52:52;9.38;;;7.68;;
16314;SDS011;8266;52.150;4.768;2023-06-22T08:55:19;8.65;;;7.60;;
16314;SDS011;8266;52.150;4.768;2023-06-22T08:57:46;7.80;;;7.00;;
16314;SDS011;8266;52.150;4.768;2023-06-22T09:00:13;7.75;;;7.05;;
16314;SDS011;8266;52.150;4.768;2023-06-22T09:02:42;7.93;;;7.22;;
16314;SDS011;8266;52.150;4.768;2023-06-22T09:05:09;8.45;;;7.07;;
16314;SDS011;8266;52.150;4.768;2023-06-22T09:07:37;8.32;;;7.53;;
16314;SDS011;8266;52.150;4.768;2023-06-22T09:10:06;9.02;;;6.88;;
16314;SDS011;8266;52.150;4.768;2023-06-22T09:12:33;7.80;;;7.10;;
16314;SDS011;8266;52.150;4.768;2023-06-22T09:15:03;8.88;;;6.85;;
16314;SDS011;8266;52.150;4.768;2023-06-22T09:17:32;5.95;;;5.45;;
16314;SDS011;8266;52.150;4.768;2023-06-22T09:20:00;9.80;;;6.95;;
16314;SDS011;8266;52.150;4.768;2023-06-22T09:22:27;8.52;;;7.50;;
16314;SDS011;8266;52.150;4.768;2023-06-22T09:24:54;7.25;;;6.60;;
16314;SDS011;8266;52.150;4.768;2023-06-22T09:27:23;7.57;;;6.63;;
16314;SDS011;8266;52.150;4.768;2023-06-22T09:29:50;6.20;;;5.60;;
16314;SDS011;8266;52.150;4.768;2023-06-22T09:32:17;7.15;;;5.97;;
16314;SDS011;8266;52.150;4.768;2023-06-22T09:34:44;8.02;;;7.22;;
16314;SDS011;8266;52.150;4.768;2023-06-22T09:37:11;8.05;;;7.30;;
16314;SDS011;8266;52.150;4.768;2023-06-22T09:39:38;10.45;;;7.72;;
16314;SDS011;8266;52.150;4.768;2023-06-22T09:42:05;7.15;;;6.45;;
16314;SDS011;8266;52.150;4.768;2023-06-22T09:44:34;7.70;;;6.75;;
16314;SDS011;8266;52.150;4.768;2023-06-22T09:47:01;8.73;;;7.82;;
16314;SDS011;8266;52.150;4.768;2023-06-22T09:49:27;7.93;;;7.15;;
16314;SDS011;8266;52.150;4.768;2023-06-22T09:51:54;7.60;;;6.88;;
16314;SDS011;8266;52.150;4.768;2023-06-22T09:54:22;9.20;;;6.78;;
16314;SDS011;8266;52.150;4.768;2023-06-22T09:56:49;8.05;;;6.72;;
16314;SDS011;8266;52.150;4.768;2023-06-22T09:59:16;7.28;;;6.25;;
16314;SDS011;8266;52.150;4.768;2023-06-22T10:01:45;7.72;;;6.32;;
16314;SDS011;8266;52.150;4.768;2023-06-22T10:04:11;5.70;;;5.00;;
16314;SDS011;8266;52.150;4.768;2023-06-22T10:06:38;5.60;;;4.50;;
16314;SDS011;8266;52.150;4.768;2023-06-22T10:09:06;3.75;;;3.38;;
16314;SDS011;8266;52.150;4.768;2023-06-22T10:11:33;3.97;;;3.58;;
16314;SDS011;8266;52.150;4.768;2023-06-22T10:14:00;4.03;;;3.50;;
16314;SDS011;8266;52.150;4.768;2023-06-22T10:16:32;3.58;;;3.05;;
16314;SDS011;8266;52.150;4.768;2023-06-22T10:19:02;2.95;;;2.47;;
16314;SDS011;8266;52.150;4.768;2023-06-22T10:21:29;2.97;;;2.70;;
16314;SDS011;8266;52.150;4.768;2023-06-22T10:23:56;3.00;;;2.58;;
16314;SDS011;8266;52.150;4.768;2023-06-22T10:26:24;3.67;;;3.38;;
16314;SDS011;8266;52.150;4.768;2023-06-22T10:28:53;3.97;;;3.35;;
16314;SDS011;8266;52.150;4.768;2023-06-22T10:31:20;7.45;;;6.53;;
16314;SDS011;8266;52.150;4.768;2023-06-22T10:33:48;7.72;;;6.95;;
16314;SDS011;8266;52.150;4.768;2023-06-22T10:36:17;9.85;;;7.50;;
16314;SDS011;8266;52.150;4.768;2023-06-22T10:38:44;10.40;;;9.25;;
16314;SDS011;8266;52.150;4.768;2023-06-22T10:41:12;9.20;;;8.30;;
16314;SDS011;8266;52.150;4.768;2023-06-22T10:43:39;8.57;;;7.68;;
16314;SDS011;8266;52.150;4.768;2023-06-22T10:46:06;9.85;;;8.90;;
16314;SDS011;8266;52.150;4.768;2023-06-22T10:48:33;8.82;;;7.93;;
16314;SDS011;8266;52.150;4.768;2023-06-22T10:51:00;9.98;;;9.00;;
16314;SDS011;8266;52.150;4.768;2023-06-22T10:53:28;10.48;;;9.38;;
16314;SDS011;8266;52.150;4.768;2023-06-22T10:55:55;10.88;;;9.77;;
16314;SDS011;8266;52.150;4.768;2023-06-22T10:58:22;10.77;;;9.80;;
16314;SDS011;8266;52.150;4.768;2023-06-22T11:00:49;11.43;;;9.68;;
16314;SDS011;8266;52.150;4.768;2023-06-22T11:03:16;10.45;;;9.45;;
16314;SDS011;8266;52.150;4.768;2023-06-22T11:05:43;9.23;;;8.32;;
16314;SDS011;8266;52.150;4.768;2023-06-22T11:08:12;9.60;;;8.65;;
16314;SDS011;8266;52.150;4.768;2023-06-22T11:10:41;11.65;;;9.07;;
16314;SDS011;8266;52.150;4.768;2023-06-22T11:13:08;10.05;;;9.05;;
16314;SDS011;8266;52.150;4.768;2023-06-22T11:15:35;12.73;;;10.00;;
16314;SDS011;8266;52.150;4.768;2023-06-22T11:18:02;9.77;;;8.57;;
16314;SDS011;8266;52.150;4.768;2023-06-22T11:20:32;12.70;;;9.60;;
16314;SDS011;8266;52.150;4.768;2023-06-22T11:23:03;10.65;;;8.75;;
16314;SDS011;8266;52.150;4.768;2023-06-22T11:25:30;10.20;;;9.20;;
16314;SDS011;8266;52.150;4.768;2023-06-22T11:28:01;10.73;;;9.63;;
16314;SDS011;8266;52.150;4.768;2023-06-22T11:30:28;17.67;;;10.13;;
16314;SDS011;8266;52.150;4.768;2023-06-22T11:32:56;9.93;;;9.02;;
16314;SDS011;8266;52.150;4.768;2023-06-22T11:35:23;10.68;;;9.68;;
16314;SDS011;8266;52.150;4.768;2023-06-22T11:37:51;11.68;;;9.40;;
16314;SDS011;8266;52.150;4.768;2023-06-22T11:40:17;9.00;;;8.07;;
16314;SDS011;8266;52.150;4.768;2023-06-22T11:42:45;10.48;;;9.48;;
16314;SDS011;8266;52.150;4.768;2023-06-22T11:45:13;10.15;;;9.02;;
16314;SDS011;8266;52.150;4.768;2023-06-22T11:47:40;11.88;;;8.95;;
16314;SDS011;8266;52.150;4.768;2023-06-22T11:50:07;11.52;;;10.07;;
16314;SDS011;8266;52.150;4.768;2023-06-22T11:52:35;9.63;;;8.50;;
16314;SDS011;8266;52.150;4.768;2023-06-22T11:55:02;10.68;;;9.18;;
16314;SDS011;8266;52.150;4.768;2023-06-22T11:57:32;11.65;;;9.23;;
16314;SDS011;8266;52.150;4.768;2023-06-22T12:00:00;9.68;;;8.88;;
16314;SDS011;8266;52.150;4.768;2023-06-22T12:02:32;10.70;;;9.68;;
16314;SDS011;8266;52.150;4.768;2023-06-22T12:04:59;10.60;;;9.60;;
16314;SDS011;8266;52.150;4.768;2023-06-22T12:07:27;9.70;;;8.70;;
16314;SDS011;8266;52.150;4.768;2023-06-22T12:09:54;10.15;;;8.60;;
16314;SDS011;8266;52.150;4.768;2023-06-22T12:12:21;10.18;;;9.15;;
16314;SDS011;8266;52.150;4.768;2023-06-22T12:14:48;8.82;;;7.93;;
16314;SDS011;8266;52.150;4.768;2023-06-22T12:17:15;9.57;;;8.68;;
16314;SDS011;8266;52.150;4.768;2023-06-22T12:19:43;11.43;;;10.20;;
16314;SDS011;8266;52.150;4.768;2023-06-22T12:22:10;11.88;;;10.02;;
16314;SDS011;8266;52.150;4.768;2023-06-22T12:24:37;10.38;;;9.38;;
16314;SDS011;8266;52.150;4.768;2023-06-22T12:27:04;10.98;;;9.88;;
16314;SDS011;8266;52.150;4.768;2023-06-22T12:29:31;9.18;;;8.30;;
16314;SDS011;8266;52.150;4.768;2023-06-22T12:31:58;8.80;;;7.90;;
16314;SDS011;8266;52.150;4.768;2023-06-22T12:34:25;10.73;;;9.63;;
16314;SDS011;8266;52.150;4.768;2023-06-22T12:36:53;9.85;;;8.95;;
16314;SDS011;8266;52.150;4.768;2023-06-22T12:39:20;9.27;;;8.23;;
16314;SDS011;8266;52.150;4.768;2023-06-22T12:41:47;11.35;;;9.82;;
16314;SDS011;8266;52.150;4.768;2023-06-22T12:44:14;9.90;;;8.90;;
16314;SDS011;8266;52.150;4.768;2023-06-22T12:46:41;8.52;;;7.72;;
16314;SDS011;8266;52.150;4.768;2023-06-22T12:49:08;9.80;;;8.73;;
16314;SDS011;8266;52.150;4.768;2023-06-22T12:51:39;9.55;;;8.65;;
16314;SDS011;8266;52.150;4.768;2023-06-22T12:54:09;9.70;;;7.90;;
16314;SDS011;8266;52.150;4.768;2023-06-22T12:56:36;11.98;;;9.55;;
16314;SDS011;8266;52.150;4.768;2023-06-22T12:59:03;11.20;;;9.13;;
16314;SDS011;8266;52.150;4.768;2023-06-22T13:01:31;10.13;;;9.13;;
16314;SDS011;8266;52.150;4.768;2023-06-22T13:03:58;9.85;;;8.70;;
16314;SDS011;8266;52.150;4.768;2023-06-22T13:06:25;10.02;;;9.02;;
16314;SDS011;8266;52.150;4.768;2023-06-22T13:08:52;9.77;;;8.77;;
16314;SDS011;8266;52.150;4.768;2023-06-22T13:11:21;9.95;;;8.93;;
16314;SDS011;8266;52.150;4.768;2023-06-22T13:13:48;9.93;;;8.98;;
16314;SDS011;8266;52.150;4.768;2023-06-22T13:16:15;10.32;;;9.32;;
16314;SDS011;8266;52.150;4.768;2023-06-22T13:18:41;10.10;;;9.10;;
16314;SDS011;8266;52.150;4.768;2023-06-22T13:21:08;9.85;;;8.82;;
16314;SDS011;8266;52.150;4.768;2023-06-22T13:23:35;9.00;;;8.20;;
16314;SDS011;8266;52.150;4.768;2023-06-22T13:26:02;9.63;;;8.65;;
16314;SDS011;8266;52.150;4.768;2023-06-22T13:28:30;9.57;;;8.55;;
16314;SDS011;8266;52.150;4.768;2023-06-22T13:30:57;8.10;;;7.40;;
16314;SDS011;8266;52.150;4.768;2023-06-22T13:33:24;8.75;;;7.95;;
16314;SDS011;8266;52.150;4.768;2023-06-22T13:35:51;8.88;;;8.07;;
16314;SDS011;8266;52.150;4.768;2023-06-22T13:38:18;9.20;;;8.10;;
16314;SDS011;8266;52.150;4.768;2023-06-22T13:40:45;8.57;;;7.85;;
16314;SDS011;8266;52.150;4.768;2023-06-22T13:43:13;9.07;;;8.23;;
16314;SDS011;8266;52.150;4.768;2023-06-22T13:45:42;7.45;;;6.78;;
16314;SDS011;8266;52.150;4.768;2023-06-22T13:48:09;9.85;;;7.28;;
16314;SDS011;8266;52.150;4.768;2023-06-22T13:50:36;7.80;;;7.10;;
16314;SDS011;8266;52.150;4.768;2023-06-22T13:53:03;7.57;;;6.88;;
16314;SDS011;8266;52.150;4.768;2023-06-22T13:55:30;7.43;;;6.75;;
16314;SDS011;8266;52.150;4.768;2023-06-22T13:57:57;7.53;;;6.90;;
16314;SDS011;8266;52.150;4.768;2023-06-22T14:00:24;8.35;;;6.75;;
16314;SDS011;8266;52.150;4.768;2023-06-22T14:02:54;8.15;;;6.45;;
16314;SDS011;8266;52.150;4.768;2023-06-22T14:05:21;8.38;;;5.88;;
16314;SDS011;8266;52.150;4.768;2023-06-22T14:07:48;7.35;;;6.22;;
16314;SDS011;8266;52.150;4.768;2023-06-22T14:10:15;6.07;;;5.47;;
16314;SDS011;8266;52.150;4.768;2023-06-22T14:12:42;5.68;;;5.13;;
16314;SDS011;8266;52.150;4.768;2023-06-22T14:15:10;6.47;;;5.72;;
16314;SDS011;8266;52.150;4.768;2023-06-22T14:17:37;6.30;;;5.65;;
16314;SDS011;8266;52.150;4.768;2023-06-22T14:20:06;4.90;;;4.50;;
16314;SDS011;8266;52.150;4.768;2023-06-22T14:22:34;4.70;;;3.92;;
16314;SDS011;8266;52.150;4.768;2023-06-22T14:25:01;4.53;;;4.13;;
16314;SDS011;8266;52.150;4.768;2023-06-22T14:27:29;4.15;;;3.83;;
16314;SDS011;8266;52.150;4.768;2023-06-22T14:29:56;5.72;;;3.63;;
16314;SDS011;8266;52.150;4.768;2023-06-22T14:32:23;3.55;;;3.25;;
16314;SDS011;8266;52.150;4.768;2023-06-22T14:34:50;3.97;;;3.33;;
16314;SDS011;8266;52.150;4.768;2023-06-22T14:37:18;3.47;;;3.22;;
16314;SDS011;8266;52.150;4.768;2023-06-22T14:39:45;4.25;;;3.55;;
16314;SDS011;8266;52.150;4.768;2023-06-22T14:42:12;3.60;;;3.30;;
16314;SDS011;8266;52.150;4.768;2023-06-22T14:44:39;3.85;;;3.20;;
16314;SDS011;8266;52.150;4.768;2023-06-22T14:47:06;3.67;;;2.90;;
16314;SDS011;8266;52.150;4.768;2023-06-22T14:49:33;3.08;;;2.88;;
16314;SDS011;8266;52.150;4.768;2023-06-22T14:52:01;3.95;;;3.15;;
16314;SDS011;8266;52.150;4.768;2023-06-22T14:54:29;3.05;;;2.80;;
16314;SDS011;8266;52.150;4.768;2023-06-22T14:56:56;2.85;;;2.63;;